CSN664 PFSH-PAIW
Flight info
| Callsign | CSN664 |
|---|---|
| Flight time | 1h 33m |
| Altitude | 7000 |
| Route | UNK J111 WONAB ATAYI HOSLO FOROD ZUKES |
| Aircraft | C208/L-SDFGR/C |
Departure
| Time | 2026-05-04 03:46 |
|---|---|
| Airport | Shaktoolik Airport (PFSH) |
Arrival
| Time | 2026-05-04 05:19 |
|---|---|
| Airport | Wales Airport (PAIW) |
| Time | Latitude | Longitude | Altitude | Speed | Heading |
|---|---|---|---|---|---|
| 2026-05-04 03:43 | 64.36623 | -161.21838 | 35 ft | 0 kts | 250° |
| 2026-05-04 03:44 | 64.36623 | -161.21840 | 35 ft | 2 kts | 249° |
| 2026-05-04 03:44 | 64.36643 | -161.21936 | 33 ft | 12 kts | 326° |
| 2026-05-04 03:44 | 64.36748 | -161.22069 | 30 ft | 23 kts | 338° |
| 2026-05-04 03:45 | 64.37053 | -161.22360 | 33 ft | 73 kts | 338° |
| 2026-05-04 03:45 | 64.37606 | -161.22877 | 180 ft | 90 kts | 330° |
| 2026-05-04 03:45 | 64.38182 | -161.23580 | 426 ft | 97 kts | 328° |
| 2026-05-04 03:45 | 64.38840 | -161.24228 | 607 ft | 111 kts | 340° |
| 2026-05-04 03:46 | 64.39645 | -161.24341 | 874 ft | 122 kts | 2° |
| 2026-05-04 03:46 | 64.40499 | -161.23973 | 1175 ft | 129 kts | 24° |
| 2026-05-04 03:46 | 64.41062 | -161.22387 | 1459 ft | 133 kts | 75° |
| 2026-05-04 03:46 | 64.40908 | -161.20363 | 1741 ft | 131 kts | 128° |
| 2026-05-04 03:47 | 64.40136 | -161.19420 | 2033 ft | 128 kts | 174° |
| 2026-05-04 03:47 | 64.39252 | -161.19159 | 2341 ft | 128 kts | 173° |
| 2026-05-04 03:47 | 64.38361 | -161.18863 | 2655 ft | 130 kts | 173° |
| 2026-05-04 03:47 | 64.37464 | -161.18581 | 2952 ft | 130 kts | 174° |
| 2026-05-04 03:48 | 64.36562 | -161.18296 | 3252 ft | 131 kts | 173° |
| 2026-05-04 03:48 | 64.35663 | -161.18016 | 3547 ft | 132 kts | 174° |
| 2026-05-04 03:48 | 64.34753 | -161.17983 | 3826 ft | 131 kts | 192° |
| 2026-05-04 03:48 | 64.33844 | -161.18169 | 4125 ft | 131 kts | 176° |
| 2026-05-04 03:49 | 64.32991 | -161.17521 | 4477 ft | 128 kts | 156° |
| 2026-05-04 03:49 | 64.32195 | -161.16664 | 4863 ft | 122 kts | 156° |
| 2026-05-04 03:49 | 64.31447 | -161.15828 | 5245 ft | 116 kts | 156° |
| 2026-05-04 03:49 | 64.30743 | -161.15032 | 5621 ft | 111 kts | 156° |
| 2026-05-04 03:50 | 64.30070 | -161.14265 | 6002 ft | 105 kts | 157° |
| 2026-05-04 03:50 | 64.29438 | -161.13541 | 6384 ft | 98 kts | 157° |
| 2026-05-04 03:50 | 64.28851 | -161.12868 | 6752 ft | 90 kts | 157° |
| 2026-05-04 03:50 | 64.28300 | -161.12231 | 6991 ft | 94 kts | 158° |
| 2026-05-04 03:51 | 64.27630 | -161.11491 | 7019 ft | 120 kts | 158° |
| 2026-05-04 03:51 | 64.26809 | -161.10575 | 7023 ft | 141 kts | 157° |
| 2026-05-04 03:51 | 64.25895 | -161.09542 | 7025 ft | 154 kts | 156° |
| 2026-05-04 03:51 | 64.24893 | -161.08404 | 7018 ft | 163 kts | 156° |
| 2026-05-04 03:52 | 64.23869 | -161.07238 | 7017 ft | 167 kts | 156° |
| 2026-05-04 03:52 | 64.22819 | -161.06044 | 7020 ft | 170 kts | 156° |
| 2026-05-04 03:52 | 64.21751 | -161.04831 | 7019 ft | 171 kts | 156° |
| 2026-05-04 03:52 | 64.20678 | -161.03616 | 7018 ft | 172 kts | 156° |
| 2026-05-04 03:53 | 64.19605 | -161.02398 | 7020 ft | 172 kts | 156° |
| 2026-05-04 03:53 | 64.18526 | -161.01179 | 7021 ft | 172 kts | 156° |
| 2026-05-04 03:53 | 64.17391 | -161.00728 | 7005 ft | 168 kts | 192° |
| 2026-05-04 03:53 | 64.16428 | -161.02143 | 7007 ft | 167 kts | 233° |
| 2026-05-04 03:54 | 64.16148 | -161.04702 | 7002 ft | 172 kts | 273° |
| 2026-05-04 03:54 | 64.16524 | -161.07325 | 7012 ft | 174 kts | 286° |
| 2026-05-04 03:54 | 64.16816 | -161.09991 | 7019 ft | 172 kts | 276° |
| 2026-05-04 03:54 | 64.17006 | -161.12696 | 7017 ft | 172 kts | 275° |
| 2026-05-04 03:55 | 64.17195 | -161.15416 | 7017 ft | 172 kts | 276° |
| 2026-05-04 03:55 | 64.17385 | -161.18126 | 7014 ft | 172 kts | 276° |
| 2026-05-04 03:55 | 64.17577 | -161.20853 | 7013 ft | 172 kts | 275° |
| 2026-05-04 03:55 | 64.17767 | -161.23572 | 7006 ft | 173 kts | 275° |
| 2026-05-04 03:56 | 64.17957 | -161.26292 | 7007 ft | 172 kts | 275° |
| 2026-05-04 03:56 | 64.18146 | -161.29014 | 7004 ft | 172 kts | 275° |
| 2026-05-04 03:56 | 64.18334 | -161.31733 | 7008 ft | 172 kts | 275° |
| 2026-05-04 03:56 | 64.18520 | -161.34425 | 7005 ft | 172 kts | 275° |
| 2026-05-04 03:57 | 64.18708 | -161.37143 | 7006 ft | 172 kts | 275° |
| 2026-05-04 03:57 | 64.18894 | -161.39862 | 7006 ft | 172 kts | 275° |
| 2026-05-04 03:57 | 64.19080 | -161.42578 | 7006 ft | 172 kts | 275° |
| 2026-05-04 03:57 | 64.19266 | -161.45300 | 7004 ft | 172 kts | 275° |
| 2026-05-04 03:58 | 64.19637 | -161.50748 | 7005 ft | 172 kts | 275° |
| 2026-05-04 03:58 | 64.19818 | -161.53433 | 7004 ft | 172 kts | 275° |
| 2026-05-04 03:58 | 64.20002 | -161.56153 | 7003 ft | 172 kts | 275° |
| 2026-05-04 03:59 | 64.20185 | -161.58874 | 7002 ft | 172 kts | 275° |
| 2026-05-04 03:59 | 64.20368 | -161.61603 | 7001 ft | 172 kts | 275° |
| 2026-05-04 03:59 | 64.20550 | -161.64316 | 6999 ft | 172 kts | 275° |
| 2026-05-04 03:59 | 64.20731 | -161.67033 | 7000 ft | 172 kts | 275° |
| 2026-05-04 04:00 | 64.20913 | -161.69758 | 7002 ft | 172 kts | 275° |
| 2026-05-04 04:00 | 64.21091 | -161.72442 | 6999 ft | 172 kts | 275° |
| 2026-05-04 04:00 | 64.21271 | -161.75171 | 7000 ft | 172 kts | 275° |
| 2026-05-04 04:00 | 64.21451 | -161.77892 | 7001 ft | 172 kts | 275° |
| 2026-05-04 04:01 | 64.21630 | -161.80616 | 6998 ft | 172 kts | 275° |
| 2026-05-04 04:01 | 64.21808 | -161.83337 | 7001 ft | 172 kts | 275° |
| 2026-05-04 04:01 | 64.21986 | -161.86055 | 6999 ft | 172 kts | 275° |
| 2026-05-04 04:01 | 64.22161 | -161.88740 | 6998 ft | 172 kts | 275° |
| 2026-05-04 04:02 | 64.22338 | -161.91458 | 6995 ft | 172 kts | 274° |
| 2026-05-04 04:02 | 64.22514 | -161.94174 | 7002 ft | 172 kts | 274° |
| 2026-05-04 04:02 | 64.22690 | -161.96893 | 7000 ft | 172 kts | 274° |
| 2026-05-04 04:02 | 64.22865 | -161.99621 | 7000 ft | 172 kts | 274° |
| 2026-05-04 04:03 | 64.23040 | -162.02336 | 6998 ft | 171 kts | 274° |
| 2026-05-04 04:03 | 64.23211 | -162.05011 | 6995 ft | 171 kts | 274° |
| 2026-05-04 04:03 | 64.23384 | -162.07722 | 6993 ft | 171 kts | 274° |
| 2026-05-04 04:03 | 64.23557 | -162.10437 | 6996 ft | 171 kts | 274° |
| 2026-05-04 04:04 | 64.23729 | -162.13156 | 6995 ft | 171 kts | 274° |
| 2026-05-04 04:04 | 64.23901 | -162.15870 | 6995 ft | 171 kts | 274° |
| 2026-05-04 04:04 | 64.24072 | -162.18583 | 6995 ft | 171 kts | 274° |
| 2026-05-04 04:04 | 64.24240 | -162.21254 | 6979 ft | 171 kts | 274° |
| 2026-05-04 04:05 | 64.24410 | -162.23964 | 6989 ft | 171 kts | 274° |
| 2026-05-04 04:05 | 64.24579 | -162.26671 | 6992 ft | 171 kts | 274° |
| 2026-05-04 04:05 | 64.24748 | -162.29385 | 6994 ft | 171 kts | 274° |
| 2026-05-04 04:05 | 64.24916 | -162.32090 | 6991 ft | 171 kts | 274° |
| 2026-05-04 04:06 | 64.25084 | -162.34800 | 6995 ft | 171 kts | 274° |
| 2026-05-04 04:06 | 64.25249 | -162.37472 | 6998 ft | 171 kts | 274° |
| 2026-05-04 04:06 | 64.25416 | -162.40182 | 7001 ft | 171 kts | 274° |
| 2026-05-04 04:06 | 64.25582 | -162.42900 | 7004 ft | 171 kts | 274° |
| 2026-05-04 04:07 | 64.25748 | -162.45609 | 6996 ft | 171 kts | 274° |
| 2026-05-04 04:07 | 64.25913 | -162.48315 | 7004 ft | 171 kts | 274° |
| 2026-05-04 04:07 | 64.26078 | -162.51028 | 6986 ft | 171 kts | 274° |
| 2026-05-04 04:07 | 64.26241 | -162.53731 | 7009 ft | 171 kts | 274° |
| 2026-05-04 04:08 | 64.26403 | -162.56403 | 7006 ft | 171 kts | 274° |
| 2026-05-04 04:08 | 64.26566 | -162.59103 | 7002 ft | 171 kts | 274° |
| 2026-05-04 04:08 | 64.26728 | -162.61818 | 7003 ft | 170 kts | 274° |
| 2026-05-04 04:08 | 64.26890 | -162.64525 | 7004 ft | 170 kts | 274° |
| 2026-05-04 04:09 | 64.27052 | -162.67230 | 7006 ft | 170 kts | 274° |
| 2026-05-04 04:09 | 64.27212 | -162.69930 | 7006 ft | 170 kts | 274° |
| 2026-05-04 04:09 | 64.27372 | -162.72625 | 7006 ft | 170 kts | 274° |
| 2026-05-04 04:09 | 64.27531 | -162.75329 | 7009 ft | 170 kts | 274° |
| 2026-05-04 04:10 | 64.27690 | -162.78031 | 7010 ft | 170 kts | 274° |
| 2026-05-04 04:10 | 64.27846 | -162.80694 | 7006 ft | 170 kts | 274° |
| 2026-05-04 04:10 | 64.28004 | -162.83396 | 7010 ft | 170 kts | 273° |
| 2026-05-04 04:10 | 64.28161 | -162.86088 | 7013 ft | 170 kts | 273° |
| 2026-05-04 04:11 | 64.28318 | -162.88782 | 7008 ft | 170 kts | 274° |
| 2026-05-04 04:11 | 64.28474 | -162.91487 | 7012 ft | 170 kts | 273° |
| 2026-05-04 04:11 | 64.28630 | -162.94184 | 7007 ft | 170 kts | 273° |
| 2026-05-04 04:11 | 64.28785 | -162.96879 | 7004 ft | 170 kts | 273° |
| 2026-05-04 04:12 | 64.28937 | -162.99534 | 7011 ft | 169 kts | 273° |
| 2026-05-04 04:12 | 64.29091 | -163.02222 | 7005 ft | 169 kts | 273° |
| 2026-05-04 04:12 | 64.29244 | -163.04912 | 7009 ft | 169 kts | 273° |
| 2026-05-04 04:12 | 64.29396 | -163.07597 | 7009 ft | 169 kts | 273° |
| 2026-05-04 04:13 | 64.29549 | -163.10292 | 7011 ft | 169 kts | 273° |
| 2026-05-04 04:13 | 64.29701 | -163.12986 | 7008 ft | 169 kts | 273° |
| 2026-05-04 04:13 | 64.29852 | -163.15679 | 7004 ft | 169 kts | 273° |
| 2026-05-04 04:13 | 64.30001 | -163.18338 | 7011 ft | 169 kts | 273° |
| 2026-05-04 04:14 | 64.30151 | -163.21033 | 7010 ft | 169 kts | 273° |
| 2026-05-04 04:14 | 64.30300 | -163.23714 | 7004 ft | 169 kts | 273° |
| 2026-05-04 04:14 | 64.30450 | -163.26399 | 7008 ft | 169 kts | 273° |
| 2026-05-04 04:14 | 64.30597 | -163.29084 | 7005 ft | 169 kts | 273° |
| 2026-05-04 04:15 | 64.30746 | -163.31772 | 7006 ft | 169 kts | 273° |
| 2026-05-04 04:15 | 64.30891 | -163.34415 | 7000 ft | 168 kts | 273° |
| 2026-05-04 04:15 | 64.31037 | -163.37094 | 7000 ft | 168 kts | 273° |
| 2026-05-04 04:15 | 64.31184 | -163.39782 | 7002 ft | 168 kts | 273° |
| 2026-05-04 04:16 | 64.31329 | -163.42468 | 7000 ft | 168 kts | 273° |
| 2026-05-04 04:16 | 64.31475 | -163.45146 | 7002 ft | 168 kts | 273° |
| 2026-05-04 04:16 | 64.31619 | -163.47825 | 6996 ft | 168 kts | 273° |
| 2026-05-04 04:16 | 64.31763 | -163.50506 | 6999 ft | 168 kts | 273° |
| 2026-05-04 04:17 | 64.31907 | -163.53187 | 6996 ft | 168 kts | 273° |
| 2026-05-04 04:17 | 64.32048 | -163.55835 | 6996 ft | 168 kts | 273° |
| 2026-05-04 04:17 | 64.32190 | -163.58514 | 6994 ft | 168 kts | 273° |
| 2026-05-04 04:17 | 64.32332 | -163.61190 | 6998 ft | 168 kts | 273° |
| 2026-05-04 04:18 | 64.32473 | -163.63866 | 6997 ft | 168 kts | 273° |
| 2026-05-04 04:18 | 64.32612 | -163.66514 | 6993 ft | 168 kts | 273° |
| 2026-05-04 04:18 | 64.32752 | -163.69179 | 6995 ft | 167 kts | 273° |
| 2026-05-04 04:18 | 64.32892 | -163.71850 | 6993 ft | 167 kts | 273° |
| 2026-05-04 04:19 | 64.33031 | -163.74513 | 6995 ft | 167 kts | 273° |
| 2026-05-04 04:19 | 64.33169 | -163.77175 | 6992 ft | 167 kts | 273° |
| 2026-05-04 04:19 | 64.33306 | -163.79844 | 6991 ft | 167 kts | 273° |
| 2026-05-04 04:19 | 64.33442 | -163.82474 | 6996 ft | 167 kts | 273° |
| 2026-05-04 04:20 | 64.33578 | -163.85140 | 6997 ft | 167 kts | 273° |
| 2026-05-04 04:20 | 64.33715 | -163.87809 | 6997 ft | 167 kts | 273° |
| 2026-05-04 04:20 | 64.33851 | -163.90471 | 6995 ft | 167 kts | 273° |
| 2026-05-04 04:20 | 64.33986 | -163.93129 | 6995 ft | 167 kts | 273° |
| 2026-05-04 04:21 | 64.34120 | -163.95794 | 6996 ft | 167 kts | 273° |
| 2026-05-04 04:21 | 64.34253 | -163.98424 | 6994 ft | 166 kts | 273° |
| 2026-05-04 04:21 | 64.34386 | -164.01079 | 6993 ft | 166 kts | 273° |
| 2026-05-04 04:21 | 64.34519 | -164.03737 | 6991 ft | 166 kts | 273° |
| 2026-05-04 04:22 | 64.34737 | -164.06357 | 6982 ft | 169 kts | 288° |
| 2026-05-04 04:22 | 64.35395 | -164.08646 | 6980 ft | 172 kts | 303° |
| 2026-05-04 04:22 | 64.36103 | -164.10875 | 6984 ft | 172 kts | 301° |
| 2026-05-04 04:22 | 64.36563 | -164.12356 | 6984 ft | 172 kts | 301° |
| 2026-05-04 04:23 | 64.37260 | -164.14594 | 6985 ft | 171 kts | 301° |
| 2026-05-04 04:23 | 64.38193 | -164.17579 | 6987 ft | 171 kts | 301° |
| 2026-05-04 04:23 | 64.38883 | -164.19794 | 6985 ft | 171 kts | 301° |
| 2026-05-04 04:23 | 64.39346 | -164.21283 | 6991 ft | 171 kts | 301° |
| 2026-05-04 04:24 | 64.40044 | -164.23524 | 6992 ft | 171 kts | 301° |
| 2026-05-04 04:24 | 64.40739 | -164.25760 | 6989 ft | 171 kts | 301° |
| 2026-05-04 04:24 | 64.41434 | -164.27998 | 6990 ft | 171 kts | 301° |
| 2026-05-04 04:24 | 64.42129 | -164.30237 | 6989 ft | 171 kts | 301° |
| 2026-05-04 04:25 | 64.42814 | -164.32447 | 6987 ft | 171 kts | 301° |
| 2026-05-04 04:25 | 64.43508 | -164.34688 | 6988 ft | 171 kts | 301° |
| 2026-05-04 04:25 | 64.44201 | -164.36931 | 6990 ft | 171 kts | 301° |
| 2026-05-04 04:25 | 64.44896 | -164.39177 | 6990 ft | 171 kts | 301° |
| 2026-05-04 04:26 | 64.45587 | -164.41415 | 6985 ft | 171 kts | 301° |
| 2026-05-04 04:26 | 64.46271 | -164.43634 | 6986 ft | 170 kts | 301° |
| 2026-05-04 04:26 | 64.46961 | -164.45874 | 6985 ft | 170 kts | 301° |
| 2026-05-04 04:26 | 64.47649 | -164.48113 | 6988 ft | 170 kts | 301° |
| 2026-05-04 04:27 | 64.48341 | -164.50358 | 6989 ft | 170 kts | 301° |
| 2026-05-04 04:27 | 64.49021 | -164.52567 | 6985 ft | 170 kts | 301° |
| 2026-05-04 04:27 | 64.49710 | -164.54813 | 6984 ft | 170 kts | 301° |
| 2026-05-04 04:27 | 64.50396 | -164.57051 | 6985 ft | 170 kts | 301° |
| 2026-05-04 04:28 | 64.51081 | -164.59287 | 6983 ft | 170 kts | 301° |
| 2026-05-04 04:28 | 64.51757 | -164.61500 | 6987 ft | 170 kts | 301° |
| 2026-05-04 04:28 | 64.52442 | -164.63738 | 6983 ft | 169 kts | 301° |
| 2026-05-04 04:28 | 64.53124 | -164.65971 | 6981 ft | 169 kts | 301° |
| 2026-05-04 04:29 | 64.53804 | -164.68201 | 6982 ft | 169 kts | 300° |
| 2026-05-04 04:29 | 64.54485 | -164.70434 | 6984 ft | 169 kts | 301° |
| 2026-05-04 04:29 | 64.55162 | -164.72659 | 6984 ft | 169 kts | 301° |
| 2026-05-04 04:29 | 64.55843 | -164.74898 | 6984 ft | 169 kts | 301° |
| 2026-05-04 04:30 | 64.56522 | -164.77131 | 6984 ft | 169 kts | 301° |
| 2026-05-04 04:30 | 64.57200 | -164.79366 | 6985 ft | 169 kts | 301° |
| 2026-05-04 04:30 | 64.57877 | -164.81598 | 6983 ft | 169 kts | 301° |
| 2026-05-04 04:30 | 64.58544 | -164.83801 | 6988 ft | 169 kts | 301° |
| 2026-05-04 04:31 | 64.59222 | -164.86037 | 6981 ft | 168 kts | 301° |
| 2026-05-04 04:31 | 64.59900 | -164.88281 | 6988 ft | 168 kts | 300° |
| 2026-05-04 04:31 | 64.60576 | -164.90521 | 6983 ft | 169 kts | 301° |
| 2026-05-04 04:31 | 64.61251 | -164.92757 | 6989 ft | 168 kts | 301° |
| 2026-05-04 04:32 | 64.61915 | -164.94958 | 6985 ft | 168 kts | 301° |
| 2026-05-04 04:32 | 64.62588 | -164.97192 | 6987 ft | 168 kts | 301° |
| 2026-05-04 04:32 | 64.63261 | -164.99431 | 6984 ft | 168 kts | 301° |
| 2026-05-04 04:32 | 64.63932 | -165.01665 | 6987 ft | 168 kts | 301° |
| 2026-05-04 04:33 | 64.64606 | -165.03905 | 6987 ft | 168 kts | 301° |
| 2026-05-04 04:33 | 64.65274 | -165.06140 | 6987 ft | 168 kts | 301° |
| 2026-05-04 04:33 | 64.65937 | -165.08351 | 6988 ft | 168 kts | 301° |
| 2026-05-04 04:33 | 64.66605 | -165.10579 | 6987 ft | 166 kts | 301° |
| 2026-05-04 04:34 | 64.67267 | -165.12794 | 6987 ft | 167 kts | 301° |
| 2026-05-04 04:34 | 64.67935 | -165.15028 | 6986 ft | 168 kts | 301° |
| 2026-05-04 04:34 | 64.68604 | -165.17265 | 6984 ft | 167 kts | 300° |
| 2026-05-04 04:34 | 64.69261 | -165.19471 | 6985 ft | 168 kts | 300° |
| 2026-05-04 04:35 | 64.69924 | -165.21698 | 6984 ft | 167 kts | 300° |
| 2026-05-04 04:35 | 64.70588 | -165.23928 | 6987 ft | 167 kts | 300° |
| 2026-05-04 04:35 | 64.71253 | -165.26167 | 6982 ft | 167 kts | 301° |
| 2026-05-04 04:35 | 64.71916 | -165.28399 | 6988 ft | 167 kts | 300° |
| 2026-05-04 04:36 | 64.72580 | -165.30635 | 6987 ft | 167 kts | 300° |
| 2026-05-04 04:36 | 64.73242 | -165.32869 | 6985 ft | 167 kts | 300° |
| 2026-05-04 04:36 | 64.73897 | -165.35082 | 6987 ft | 167 kts | 300° |
| 2026-05-04 04:36 | 64.74563 | -165.37333 | 6988 ft | 168 kts | 301° |
| 2026-05-04 04:37 | 64.76552 | -165.44069 | 6984 ft | 167 kts | 300° |
| 2026-05-04 04:37 | 64.77214 | -165.46316 | 6986 ft | 167 kts | 300° |
| 2026-05-04 04:38 | 64.77872 | -165.48551 | 6983 ft | 166 kts | 300° |
| 2026-05-04 04:38 | 64.78525 | -165.50771 | 6985 ft | 165 kts | 300° |
| 2026-05-04 04:38 | 64.79173 | -165.52979 | 6981 ft | 166 kts | 300° |
| 2026-05-04 04:38 | 64.79827 | -165.55210 | 6982 ft | 166 kts | 300° |
| 2026-05-04 04:39 | 64.80483 | -165.57447 | 6983 ft | 166 kts | 300° |
| 2026-05-04 04:39 | 64.81138 | -165.59679 | 6981 ft | 165 kts | 300° |
| 2026-05-04 04:39 | 64.81779 | -165.61873 | 6982 ft | 164 kts | 300° |
| 2026-05-04 04:39 | 64.82429 | -165.64101 | 6982 ft | 165 kts | 300° |
| 2026-05-04 04:40 | 64.83080 | -165.66327 | 6981 ft | 165 kts | 300° |
| 2026-05-04 04:40 | 64.83731 | -165.68556 | 6981 ft | 165 kts | 300° |
| 2026-05-04 04:40 | 64.84379 | -165.70780 | 6981 ft | 165 kts | 300° |
| 2026-05-04 04:40 | 64.85027 | -165.73005 | 6978 ft | 164 kts | 300° |
| 2026-05-04 04:41 | 64.85663 | -165.75192 | 6982 ft | 164 kts | 300° |
| 2026-05-04 04:41 | 64.86311 | -165.77428 | 6978 ft | 165 kts | 300° |
| 2026-05-04 04:41 | 64.86957 | -165.79650 | 6981 ft | 164 kts | 300° |
| 2026-05-04 04:41 | 64.87595 | -165.81855 | 6982 ft | 166 kts | 300° |
| 2026-05-04 04:42 | 64.88252 | -165.84119 | 6969 ft | 166 kts | 301° |
| 2026-05-04 04:42 | 64.88889 | -165.86322 | 6986 ft | 160 kts | 300° |
| 2026-05-04 04:42 | 64.89525 | -165.88531 | 6968 ft | 163 kts | 300° |
| 2026-05-04 04:42 | 64.90161 | -165.90727 | 6980 ft | 166 kts | 300° |
| 2026-05-04 04:43 | 64.90806 | -165.92957 | 6982 ft | 164 kts | 300° |
| 2026-05-04 04:43 | 64.91446 | -165.95178 | 6977 ft | 163 kts | 300° |
| 2026-05-04 04:43 | 64.92087 | -165.97405 | 6986 ft | 165 kts | 301° |
| 2026-05-04 04:43 | 64.92741 | -165.99676 | 6977 ft | 168 kts | 300° |
| 2026-05-04 04:44 | 64.93397 | -166.01956 | 6968 ft | 166 kts | 300° |
| 2026-05-04 04:44 | 64.94029 | -166.04158 | 6970 ft | 162 kts | 300° |
| 2026-05-04 04:44 | 64.94663 | -166.06369 | 6976 ft | 164 kts | 300° |
| 2026-05-04 04:44 | 64.95307 | -166.08618 | 6972 ft | 163 kts | 300° |
| 2026-05-04 04:45 | 64.95943 | -166.10835 | 6968 ft | 163 kts | 300° |
| 2026-05-04 04:45 | 64.96576 | -166.13050 | 6978 ft | 162 kts | 300° |
| 2026-05-04 04:45 | 64.97201 | -166.15243 | 6978 ft | 163 kts | 300° |
| 2026-05-04 04:47 | 65.00980 | -166.28513 | 6976 ft | 161 kts | 300° |
| 2026-05-04 04:47 | 65.01598 | -166.30692 | 6977 ft | 161 kts | 300° |
| 2026-05-04 04:47 | 65.02222 | -166.32894 | 6972 ft | 161 kts | 300° |
| 2026-05-04 04:47 | 65.02851 | -166.35111 | 6973 ft | 161 kts | 300° |
| 2026-05-04 04:48 | 65.03475 | -166.37320 | 6971 ft | 161 kts | 300° |
| 2026-05-04 04:49 | 65.05962 | -166.46132 | 6969 ft | 162 kts | 300° |
| 2026-05-04 04:49 | 65.06585 | -166.48345 | 6969 ft | 161 kts | 300° |
| 2026-05-04 04:49 | 65.07206 | -166.50555 | 6976 ft | 161 kts | 300° |
| 2026-05-04 04:49 | 65.07831 | -166.52781 | 6973 ft | 162 kts | 300° |
| 2026-05-04 04:50 | 65.08454 | -166.54997 | 6971 ft | 161 kts | 300° |
| 2026-05-04 04:50 | 65.09068 | -166.57190 | 6973 ft | 161 kts | 300° |
| 2026-05-04 04:50 | 65.09688 | -166.59404 | 6969 ft | 160 kts | 300° |
| 2026-05-04 04:50 | 65.10305 | -166.61606 | 6972 ft | 160 kts | 300° |
| 2026-05-04 04:51 | 65.10923 | -166.63821 | 6973 ft | 160 kts | 300° |
| 2026-05-04 04:51 | 65.11540 | -166.66025 | 6966 ft | 160 kts | 300° |
| 2026-05-04 04:51 | 65.12146 | -166.68199 | 6968 ft | 160 kts | 300° |
| 2026-05-04 04:51 | 65.12759 | -166.70397 | 6967 ft | 159 kts | 300° |
| 2026-05-04 04:52 | 65.13371 | -166.72600 | 6967 ft | 159 kts | 300° |
| 2026-05-04 04:52 | 65.13985 | -166.74805 | 6966 ft | 159 kts | 300° |
| 2026-05-04 04:52 | 65.14597 | -166.77009 | 6962 ft | 159 kts | 300° |
| 2026-05-04 04:52 | 65.15200 | -166.79179 | 6963 ft | 159 kts | 300° |
| 2026-05-04 04:53 | 65.15809 | -166.81377 | 6964 ft | 159 kts | 300° |
| 2026-05-04 04:53 | 65.16418 | -166.83574 | 6963 ft | 159 kts | 300° |
| 2026-05-04 04:53 | 65.17028 | -166.85778 | 6961 ft | 159 kts | 300° |
| 2026-05-04 04:53 | 65.17636 | -166.87974 | 6964 ft | 159 kts | 300° |
| 2026-05-04 04:54 | 65.18242 | -166.90168 | 6959 ft | 159 kts | 300° |
| 2026-05-04 04:54 | 65.18847 | -166.92363 | 6961 ft | 159 kts | 300° |
| 2026-05-04 04:54 | 65.19448 | -166.94541 | 6958 ft | 159 kts | 300° |
| 2026-05-04 04:54 | 65.20054 | -166.96740 | 6960 ft | 159 kts | 300° |
| 2026-05-04 04:55 | 65.20659 | -166.98941 | 6959 ft | 158 kts | 300° |
| 2026-05-04 04:55 | 65.21263 | -167.01136 | 6957 ft | 158 kts | 300° |
| 2026-05-04 04:55 | 65.21866 | -167.03334 | 6953 ft | 158 kts | 300° |
| 2026-05-04 04:55 | 65.22471 | -167.05539 | 6948 ft | 158 kts | 300° |
| 2026-05-04 04:56 | 65.23064 | -167.07704 | 6948 ft | 158 kts | 300° |
| 2026-05-04 04:56 | 65.23571 | -167.10016 | 6951 ft | 157 kts | 290° |
| 2026-05-04 04:56 | 65.23978 | -167.12430 | 6946 ft | 157 kts | 290° |
| 2026-05-04 04:56 | 65.24396 | -167.14834 | 6947 ft | 157 kts | 291° |
| 2026-05-04 04:57 | 65.24817 | -167.17233 | 6945 ft | 157 kts | 291° |
| 2026-05-04 04:57 | 65.25237 | -167.19637 | 6939 ft | 157 kts | 291° |
| 2026-05-04 04:57 | 65.25656 | -167.22036 | 6941 ft | 156 kts | 291° |
| 2026-05-04 04:57 | 65.26074 | -167.24437 | 6942 ft | 156 kts | 291° |
| 2026-05-04 04:58 | 65.26487 | -167.26808 | 6939 ft | 156 kts | 291° |
| 2026-05-04 04:58 | 65.26903 | -167.29203 | 6935 ft | 156 kts | 291° |
| 2026-05-04 04:58 | 65.27321 | -167.31610 | 6931 ft | 156 kts | 291° |
| 2026-05-04 04:58 | 65.27737 | -167.34006 | 6935 ft | 156 kts | 291° |
| 2026-05-04 04:59 | 65.28154 | -167.36417 | 6934 ft | 156 kts | 291° |
| 2026-05-04 04:59 | 65.28566 | -167.38794 | 6937 ft | 156 kts | 291° |
| 2026-05-04 04:59 | 65.28982 | -167.41204 | 6934 ft | 156 kts | 291° |
| 2026-05-04 04:59 | 65.29397 | -167.43608 | 6934 ft | 156 kts | 291° |
| 2026-05-04 05:00 | 65.29811 | -167.46015 | 6933 ft | 156 kts | 291° |
| 2026-05-04 05:00 | 65.30225 | -167.48411 | 6937 ft | 156 kts | 291° |
| 2026-05-04 05:00 | 65.31044 | -167.53182 | 6927 ft | 156 kts | 291° |
| 2026-05-04 05:01 | 65.31456 | -167.55585 | 6931 ft | 156 kts | 291° |
| 2026-05-04 05:01 | 65.31867 | -167.57985 | 6930 ft | 155 kts | 291° |
| 2026-05-04 05:01 | 65.32278 | -167.60386 | 6925 ft | 156 kts | 291° |
| 2026-05-04 05:01 | 65.32682 | -167.62753 | 6924 ft | 155 kts | 291° |
| 2026-05-04 05:02 | 65.33092 | -167.65155 | 6925 ft | 155 kts | 291° |
| 2026-05-04 05:02 | 65.33500 | -167.67550 | 6927 ft | 155 kts | 291° |
| 2026-05-04 05:02 | 65.33908 | -167.69943 | 6927 ft | 155 kts | 291° |
| 2026-05-04 05:02 | 65.34314 | -167.72335 | 6934 ft | 155 kts | 291° |
| 2026-05-04 05:03 | 65.34720 | -167.74728 | 6929 ft | 155 kts | 291° |
| 2026-05-04 05:03 | 65.35126 | -167.77119 | 6935 ft | 155 kts | 290° |
| 2026-05-04 05:04 | 65.36335 | -167.84262 | 6932 ft | 155 kts | 291° |
| 2026-05-04 05:04 | 65.36738 | -167.86653 | 6935 ft | 154 kts | 291° |
| 2026-05-04 05:04 | 65.37141 | -167.89046 | 6928 ft | 154 kts | 291° |
| 2026-05-04 05:06 | 65.39932 | -168.05684 | 6936 ft | 154 kts | 290° |
| 2026-05-04 05:06 | 65.40330 | -168.08072 | 6938 ft | 154 kts | 291° |
| 2026-05-04 05:06 | 65.40730 | -168.10470 | 6938 ft | 154 kts | 290° |
| 2026-05-04 05:07 | 65.40993 | -168.12051 | 6934 ft | 154 kts | 291° |
| 2026-05-04 05:07 | 65.41402 | -168.14441 | 6928 ft | 154 kts | 294° |
| 2026-05-04 05:07 | 65.42131 | -168.16353 | 6929 ft | 159 kts | 322° |
| 2026-05-04 05:09 | 65.50970 | -168.10655 | 5634 ft | 153 kts | 12° |
| 2026-05-04 05:09 | 65.51959 | -168.09771 | 5333 ft | 149 kts | 12° |
| 2026-05-04 05:10 | 65.52916 | -168.08910 | 5112 ft | 144 kts | 12° |
| 2026-05-04 05:10 | 65.53854 | -168.08069 | 4895 ft | 142 kts | 12° |
| 2026-05-04 05:10 | 65.54778 | -168.07241 | 4671 ft | 141 kts | 12° |
| 2026-05-04 05:10 | 65.55690 | -168.06421 | 4441 ft | 141 kts | 12° |
| 2026-05-04 05:11 | 65.56611 | -168.05592 | 4225 ft | 141 kts | 13° |
| 2026-05-04 05:11 | 65.57538 | -168.04758 | 4007 ft | 142 kts | 13° |
| 2026-05-04 05:11 | 65.58459 | -168.03921 | 3786 ft | 141 kts | 13° |
| 2026-05-04 05:11 | 65.59384 | -168.03095 | 3568 ft | 142 kts | 14° |
| 2026-05-04 05:12 | 65.60311 | -168.02257 | 3349 ft | 142 kts | 14° |
| 2026-05-04 05:12 | 65.61246 | -168.01408 | 3131 ft | 144 kts | 14° |
| 2026-05-04 05:12 | 65.62170 | -168.00576 | 2917 ft | 144 kts | 14° |
| 2026-05-04 05:12 | 65.63114 | -167.99718 | 2717 ft | 144 kts | 14° |
| 2026-05-04 05:13 | 65.64043 | -167.98872 | 2549 ft | 141 kts | 14° |
| 2026-05-04 05:13 | 65.64959 | -167.98041 | 2404 ft | 139 kts | 14° |
| 2026-05-04 05:13 | 65.65854 | -167.97229 | 2261 ft | 138 kts | 15° |
| 2026-05-04 05:13 | 65.66755 | -167.96409 | 2116 ft | 138 kts | 14° |
| 2026-05-04 05:14 | 65.67655 | -167.95590 | 1984 ft | 138 kts | 15° |
| 2026-05-04 05:14 | 65.68564 | -167.95286 | 1833 ft | 129 kts | 336° |
| 2026-05-04 05:14 | 65.69202 | -167.96636 | 1714 ft | 121 kts | 302° |
| 2026-05-04 05:14 | 65.69680 | -167.98324 | 1566 ft | 118 kts | 289° |
| 2026-05-04 05:15 | 65.69736 | -168.00206 | 1363 ft | 109 kts | 258° |
| 2026-05-04 05:15 | 65.69412 | -168.01786 | 1088 ft | 103 kts | 230° |
| 2026-05-04 05:15 | 65.68839 | -168.02728 | 947 ft | 94 kts | 207° |
| 2026-05-04 05:15 | 65.68290 | -168.03406 | 935 ft | 84 kts | 210° |
| 2026-05-04 05:16 | 65.67806 | -168.04027 | 944 ft | 72 kts | 210° |
| 2026-05-04 05:16 | 65.67394 | -168.04557 | 937 ft | 64 kts | 211° |
| 2026-05-04 05:16 | 65.67017 | -168.05044 | 945 ft | 62 kts | 208° |
| 2026-05-04 05:16 | 65.66597 | -168.05584 | 965 ft | 71 kts | 207° |
| 2026-05-04 05:17 | 65.66124 | -168.06246 | 747 ft | 80 kts | 209° |
| 2026-05-04 05:17 | 65.65654 | -168.06900 | 647 ft | 77 kts | 208° |
| 2026-05-04 05:17 | 65.65190 | -168.07543 | 528 ft | 76 kts | 205° |
| 2026-05-04 05:17 | 65.64726 | -168.08098 | 427 ft | 73 kts | 202° |
| 2026-05-04 05:18 | 65.64273 | -168.08593 | 328 ft | 71 kts | 198° |
| 2026-05-04 05:18 | 65.63795 | -168.08909 | 234 ft | 71 kts | 188° |
| 2026-05-04 05:18 | 65.63308 | -168.09071 | 155 ft | 70 kts | 187° |
| 2026-05-04 05:18 | 65.62823 | -168.09258 | 87 ft | 70 kts | 188° |
| 2026-05-04 05:19 | 65.62338 | -168.09429 | 29 ft | 70 kts | 188° |
| 2026-05-04 05:19 | 65.61914 | -168.09593 | 28 ft | 52 kts | 198° |
| 2026-05-04 05:19 | 65.61735 | -168.09636 | 29 ft | 7 kts | 155° |
| 2026-05-04 05:19 | 65.61694 | -168.09560 | 30 ft | 8 kts | 112° |
| 2026-05-04 05:20 | 65.61697 | -168.09529 | 30 ft | 1 kts | 37° |
| 2026-05-04 05:20 | 65.61699 | -168.09526 | 30 ft | 0 kts | 33° |